createdAt,value
2018-07-25T00:02:22.390Z,24.20
2018-07-25T00:04:52.081Z,24.20
2018-07-25T00:07:21.960Z,24.20
2018-07-25T00:09:50.537Z,24.20
2018-07-25T00:12:19.751Z,24.20
2018-07-25T00:14:48.303Z,24.10
2018-07-25T00:17:16.917Z,24.10
2018-07-25T00:19:47.354Z,24.00
2018-07-25T00:22:16.154Z,24.00
2018-07-25T00:24:46.414Z,24.00
2018-07-25T00:27:15.729Z,23.90
2018-07-25T00:29:48.726Z,23.90
2018-07-25T00:32:18.574Z,23.80
2018-07-25T00:34:47.123Z,23.80
2018-07-25T00:37:17.473Z,23.80
2018-07-25T00:39:47.665Z,23.70
2018-07-25T00:42:19.152Z,23.70
2018-07-25T00:44:47.701Z,23.70
2018-07-25T00:47:16.234Z,23.70
2018-07-25T00:49:54.682Z,23.60
2018-07-25T00:52:23.793Z,23.60
2018-07-25T00:54:52.357Z,23.50
2018-07-25T00:57:21.058Z,23.50
2018-07-25T00:59:50.604Z,23.50
2018-07-25T01:02:22.601Z,23.50
2018-07-25T01:04:52.593Z,23.50
2018-07-25T01:07:21.373Z,23.50
2018-07-25T01:09:50.157Z,23.50
2018-07-25T01:12:19.455Z,23.50
2018-07-25T01:14:50.330Z,23.50
2018-07-25T01:17:23.778Z,23.40
2018-07-25T01:19:52.573Z,23.40
2018-07-25T01:24:56.257Z,23.40
2018-07-25T01:27:25.557Z,23.40
2018-07-25T01:29:54.134Z,23.40
2018-07-25T01:32:22.693Z,23.30
2018-07-25T01:34:51.553Z,23.30
2018-07-25T01:37:20.097Z,23.20
2018-07-25T01:39:48.683Z,23.20
2018-07-25T01:42:17.517Z,23.20
2018-07-25T01:44:46.054Z,23.20
2018-07-25T01:47:15.362Z,23.20
2018-07-25T01:49:43.999Z,23.20
2018-07-25T01:52:13.825Z,23.20
2018-07-25T01:54:43.833Z,23.20
2018-07-25T01:57:13.912Z,23.10
2018-07-25T01:59:42.465Z,23.10
2018-07-25T02:02:11.941Z,23.10
2018-07-25T02:04:41.125Z,23.10
2018-07-25T02:07:11.365Z,23.10
2018-07-25T02:12:14.797Z,23.10
2018-07-25T02:14:44.265Z,23.20
2018-07-25T02:17:13.504Z,23.20
2018-07-25T02:19:43.676Z,23.20
2018-07-25T02:22:12.233Z,23.20
2018-07-25T02:24:40.767Z,23.20
2018-07-25T02:27:10.233Z,23.20
2018-07-25T02:29:39.810Z,23.20
2018-07-25T02:32:09.195Z,23.10
2018-07-25T02:34:37.734Z,23.20
2018-07-25T02:37:06.266Z,23.20
2018-07-25T02:39:35.154Z,23.10
2018-07-25T02:42:03.773Z,23.20
2018-07-25T02:44:32.320Z,23.20
2018-07-25T02:47:00.842Z,23.20
2018-07-25T02:49:29.647Z,23.10
2018-07-25T02:51:58.177Z,23.10
2018-07-25T02:54:27.606Z,23.10
2018-07-25T02:56:56.259Z,23.10
2018-07-25T02:59:25.527Z,23.00
2018-07-25T03:01:56.360Z,23.00
2018-07-25T03:04:25.215Z,23.00
2018-07-25T03:06:55.825Z,23.00
2018-07-25T03:09:24.477Z,23.00
2018-07-25T03:11:53.033Z,23.00
2018-07-25T03:14:22.895Z,22.90
2018-07-25T03:16:52.448Z,22.90
2018-07-25T03:19:22.121Z,22.90
2018-07-25T03:21:50.678Z,22.90
2018-07-25T03:24:20.099Z,22.90
2018-07-25T03:26:48.638Z,22.90
2018-07-25T03:29:19.090Z,22.90
2018-07-25T03:31:47.938Z,22.90
2018-07-25T03:34:16.530Z,22.80
2018-07-25T03:36:45.088Z,22.80
2018-07-25T03:39:13.639Z,22.70
2018-07-25T03:41:42.176Z,22.70
2018-07-25T03:44:10.744Z,22.70
2018-07-25T03:46:40.078Z,22.60
2018-07-25T03:49:09.875Z,22.60
2018-07-25T03:51:39.037Z,22.50
2018-07-25T03:54:07.644Z,22.50
2018-07-25T03:56:36.334Z,22.60
2018-07-25T03:59:06.825Z,22.60
2018-07-25T04:01:37.448Z,22.60
2018-07-25T04:04:09.826Z,22.60
2018-07-25T04:06:41.374Z,22.60
2018-07-25T04:09:12.938Z,22.60
2018-07-25T04:11:41.427Z,22.60
2018-07-25T04:14:09.957Z,22.50
2018-07-25T04:16:39.789Z,22.60
2018-07-25T04:19:08.330Z,22.60
2018-07-25T04:21:36.877Z,22.60
2018-07-25T04:24:06.725Z,22.60
2018-07-25T04:26:37.169Z,22.60
2018-07-25T04:29:05.738Z,22.60
2018-07-25T04:31:34.517Z,22.60
2018-07-25T04:34:04.318Z,22.60
2018-07-25T04:36:33.604Z,22.60
2018-07-25T04:39:03.298Z,22.60
2018-07-25T04:41:33.431Z,22.70
2018-07-25T04:44:02.763Z,22.60
2018-07-25T04:46:32.136Z,22.60
2018-07-25T04:49:06.243Z,22.60
2018-07-25T04:51:35.429Z,22.60
2018-07-25T04:54:05.160Z,22.60
2018-07-25T04:56:34.572Z,22.60
2018-07-25T04:59:04.410Z,22.70
2018-07-25T05:01:34.280Z,22.70
2018-07-25T05:04:06.034Z,22.70
2018-07-25T05:06:35.278Z,22.70
2018-07-25T05:09:07.418Z,22.70
2018-07-25T05:11:36.308Z,22.70
2018-07-25T05:14:05.920Z,22.70
2018-07-25T05:16:35.953Z,22.60
2018-07-25T05:19:05.942Z,22.70
2018-07-25T05:21:37.589Z,22.70
2018-07-25T05:24:06.652Z,22.70
2018-07-25T05:26:39.250Z,22.70
2018-07-25T05:29:10.627Z,22.70
2018-07-25T05:31:41.926Z,22.70
2018-07-25T05:34:17.203Z,22.70
2018-07-25T05:36:50.375Z,22.70
2018-07-25T05:39:23.171Z,22.70
2018-07-25T05:41:53.459Z,22.90
2018-07-25T05:44:25.876Z,22.80
2018-07-25T05:46:57.642Z,22.80
2018-07-25T05:49:26.549Z,22.90
2018-07-25T05:51:59.701Z,22.90
2018-07-25T05:54:35.182Z,22.90
2018-07-25T05:57:16.291Z,23.00
2018-07-25T05:59:50.013Z,23.00
2018-07-25T06:02:19.543Z,23.00
2018-07-25T06:04:49.191Z,23.00
2018-07-25T06:07:20.427Z,23.00
2018-07-25T06:10:00.080Z,23.00
2018-07-25T06:12:31.960Z,23.00
2018-07-25T06:15:05.116Z,23.10
2018-07-25T06:17:44.691Z,23.10
2018-07-25T06:20:18.356Z,23.10
2018-07-25T06:22:50.797Z,23.20
2018-07-25T06:25:20.396Z,23.20
2018-07-25T06:27:48.938Z,23.20
2018-07-25T06:30:17.641Z,23.20
2018-07-25T06:32:46.877Z,23.30
2018-07-25T06:35:15.974Z,23.30
2018-07-25T06:37:46.654Z,23.30
2018-07-25T06:40:16.654Z,23.40
2018-07-25T06:42:49.777Z,23.40
2018-07-25T06:45:18.348Z,23.40
2018-07-25T06:47:48.121Z,23.50
2018-07-25T06:50:18.117Z,23.50
2018-07-25T06:52:47.385Z,23.50
2018-07-25T06:55:17.618Z,23.60
2018-07-25T06:57:47.609Z,25.70
2018-07-25T07:00:18.117Z,23.60
2018-07-25T07:02:46.665Z,23.60
2018-07-25T07:05:16.160Z,23.60
2018-07-25T07:07:46.182Z,23.60
2018-07-25T07:10:15.009Z,23.60
2018-07-25T07:12:46.722Z,23.60
2018-07-25T07:15:16.860Z,23.70
2018-07-25T07:17:46.144Z,23.70
2018-07-25T07:20:16.608Z,23.70
2018-07-25T07:22:45.259Z,23.70
2018-07-25T07:25:15.311Z,23.70
2018-07-25T07:27:44.516Z,23.70
2018-07-25T07:30:14.613Z,23.80
2018-07-25T07:32:43.192Z,23.80
2018-07-25T07:35:13.171Z,23.80
2018-07-25T07:37:45.199Z,23.90
2018-07-25T07:40:14.597Z,23.90
2018-07-25T07:42:44.838Z,23.90
2018-07-25T07:45:14.662Z,23.90
2018-07-25T07:47:47.489Z,23.90
2018-07-25T07:50:17.781Z,23.90
2018-07-25T07:52:47.269Z,23.90
2018-07-25T07:55:15.923Z,23.90
2018-07-25T07:57:44.449Z,23.90
2018-07-25T08:00:14.448Z,23.90
2018-07-25T08:02:45.014Z,24.00
2018-07-25T08:05:15.969Z,24.00
2018-07-25T08:07:44.738Z,24.00
2018-07-25T08:10:14.425Z,24.00
2018-07-25T08:12:43.651Z,24.10
2018-07-25T08:15:12.637Z,24.20
2018-07-25T08:17:45.031Z,24.20
2018-07-25T08:20:18.633Z,24.30
2018-07-25T08:22:48.504Z,24.30
2018-07-25T08:25:21.853Z,24.40
2018-07-25T08:27:51.017Z,24.40
2018-07-25T08:30:22.589Z,24.50
2018-07-25T08:32:52.336Z,24.50
2018-07-25T08:35:23.222Z,24.50
2018-07-25T08:37:52.135Z,24.50
2018-07-25T08:40:20.915Z,24.50
2018-07-25T08:42:50.266Z,24.50
2018-07-25T08:45:22.393Z,24.50
2018-07-25T08:50:37.328Z,24.40
2018-07-25T08:53:08.011Z,24.40
2018-07-25T08:55:37.630Z,24.40
2018-07-25T08:58:13.691Z,24.40
2018-07-25T09:00:46.725Z,24.40
2018-07-25T09:03:16.033Z,24.50
2018-07-25T09:05:48.518Z,24.50
2018-07-25T09:08:21.095Z,24.60
2018-07-25T09:10:52.901Z,24.60
2018-07-25T09:13:23.748Z,24.60
2018-07-25T09:16:01.416Z,24.70
2018-07-25T09:18:30.786Z,24.80
2018-07-25T09:21:01.009Z,24.80
2018-07-25T09:23:36.293Z,24.90
2018-07-25T09:26:06.044Z,24.90
2018-07-25T09:28:34.602Z,25.00
2018-07-25T09:31:09.598Z,25.10
2018-07-25T09:33:39.303Z,27.40
2018-07-25T09:36:09.202Z,25.20
2018-07-25T09:38:39.218Z,25.20
2018-07-25T09:41:08.541Z,25.30
2018-07-25T09:43:39.046Z,25.40
2018-07-25T09:46:09.605Z,25.50
2018-07-25T09:48:40.345Z,25.60
2018-07-25T09:51:09.707Z,25.70
2018-07-25T09:53:38.982Z,26.00
2018-07-25T09:56:09.998Z,26.30
2018-07-25T09:58:39.724Z,26.70
2018-07-25T10:01:08.331Z,27.00
2018-07-25T10:03:41.729Z,27.40
2018-07-25T10:06:11.180Z,27.70
2018-07-25T10:08:41.381Z,27.90
2018-07-25T10:11:10.998Z,28.10
2018-07-25T10:13:41.755Z,28.30
2018-07-25T10:16:13.266Z,28.50
2018-07-25T10:18:44.638Z,28.60
2018-07-25T10:21:15.958Z,28.70
2018-07-25T10:23:46.871Z,28.80
2018-07-25T10:26:17.631Z,29.00
2018-07-25T10:28:47.895Z,29.20
2018-07-25T10:31:18.113Z,30.50
2018-07-25T10:33:50.457Z,29.30
2018-07-25T10:36:21.419Z,29.20
2018-07-25T10:38:55.675Z,29.10
2018-07-25T10:41:27.775Z,29.10
2018-07-25T10:43:57.023Z,29.20
2018-07-25T10:46:27.345Z,29.20
2018-07-25T10:48:57.003Z,29.40
2018-07-25T10:51:29.558Z,29.50
2018-07-25T10:54:00.439Z,29.70
2018-07-25T10:56:31.229Z,29.60
2018-07-25T10:59:00.749Z,29.40
2018-07-25T11:01:31.510Z,29.20
2018-07-25T11:04:00.733Z,29.00
2018-07-25T11:06:30.769Z,28.80
2018-07-25T11:09:01.738Z,28.60
2018-07-25T11:11:31.183Z,28.40
2018-07-25T11:14:00.865Z,28.20
2018-07-25T11:16:31.628Z,28.10
2018-07-25T11:19:01.143Z,28.10
2018-07-25T11:21:31.154Z,28.10
2018-07-25T11:24:01.307Z,28.10
2018-07-25T11:26:30.780Z,28.10
2018-07-25T11:28:59.342Z,28.10
2018-07-25T11:31:30.462Z,28.20
2018-07-25T11:33:59.699Z,28.40
2018-07-25T11:36:29.147Z,28.50
2018-07-25T11:39:00.235Z,28.70
2018-07-25T11:41:31.210Z,29.00
2018-07-25T11:44:00.033Z,29.20
2018-07-25T11:46:29.610Z,29.30
2018-07-25T11:48:58.743Z,29.50
2018-07-25T11:51:28.093Z,29.80
2018-07-25T11:54:00.129Z,30.00
2018-07-25T11:56:30.909Z,30.20
2018-07-25T11:59:03.357Z,30.40
2018-07-25T12:01:47.469Z,30.60
2018-07-25T12:04:17.744Z,30.80
2018-07-25T12:06:46.918Z,30.90
2018-07-25T12:09:21.573Z,31.10
2018-07-25T12:11:51.017Z,31.30
2018-07-25T12:14:22.153Z,31.40
2018-07-25T12:16:59.737Z,31.50
2018-07-25T12:19:28.828Z,31.60
2018-07-25T12:21:57.538Z,31.60
2018-07-25T12:24:26.226Z,31.70
2018-07-25T12:26:55.073Z,31.60
2018-07-25T12:29:24.760Z,31.60
2018-07-25T12:32:02.020Z,31.60
2018-07-25T12:34:37.720Z,31.70
2018-07-25T12:37:10.503Z,31.80
2018-07-25T12:39:39.917Z,31.90
2018-07-25T12:42:10.465Z,32.20
2018-07-25T12:44:39.777Z,32.30
2018-07-25T12:47:10.236Z,32.40
2018-07-25T12:49:39.951Z,32.50
2018-07-25T12:52:10.506Z,32.50
2018-07-25T12:54:39.361Z,32.50
2018-07-25T12:57:08.886Z,32.60
2018-07-25T12:59:37.414Z,32.60
2018-07-25T13:02:06.864Z,32.60
2018-07-25T13:04:36.188Z,32.70
2018-07-25T13:07:04.779Z,32.70
2018-07-25T13:09:34.155Z,32.70
2018-07-25T13:12:03.354Z,32.70
2018-07-25T13:14:33.530Z,32.60
2018-07-25T13:17:02.800Z,32.60
2018-07-25T13:19:33.537Z,32.70
2018-07-25T13:22:04.581Z,32.70
2018-07-25T13:24:34.597Z,32.80
2018-07-25T13:27:03.165Z,32.80
2018-07-25T13:29:36.167Z,32.80
2018-07-25T13:32:05.565Z,32.60
2018-07-25T13:34:34.756Z,32.40
2018-07-25T13:37:05.979Z,32.30
2018-07-25T13:39:38.089Z,32.20
2018-07-25T13:42:15.389Z,32.20
2018-07-25T13:44:43.974Z,32.40
2018-07-25T13:47:13.079Z,32.50
2018-07-25T13:49:44.190Z,32.50
2018-07-25T13:52:13.554Z,32.60
2018-07-25T13:54:42.115Z,32.60
2018-07-25T13:57:10.659Z,32.60
2018-07-25T13:59:40.722Z,32.60
2018-07-25T14:02:09.517Z,32.60
2018-07-25T14:04:38.758Z,32.60
2018-07-25T14:07:09.774Z,32.60
2018-07-25T14:09:38.366Z,32.60
2018-07-25T14:12:08.842Z,32.50
2018-07-25T14:14:38.165Z,32.50
2018-07-25T14:17:07.733Z,32.30
2018-07-25T14:19:37.033Z,32.20
2018-07-25T14:22:06.517Z,32.00
2018-07-25T14:24:36.370Z,31.90
2018-07-25T14:27:05.520Z,31.90
2018-07-25T14:29:34.621Z,31.80
2018-07-25T14:32:05.373Z,31.70
2018-07-25T14:34:34.751Z,31.60
2018-07-25T14:37:05.157Z,31.50
2018-07-25T14:39:34.754Z,31.40
2018-07-25T14:42:03.542Z,31.40
2018-07-25T14:44:32.480Z,31.30
2018-07-25T14:47:01.163Z,31.20
2018-07-25T14:49:30.330Z,31.10
2018-07-25T14:52:00.672Z,31.00
2018-07-25T14:54:30.133Z,31.00
2018-07-25T14:57:01.208Z,30.80
2018-07-25T14:59:32.537Z,30.70
2018-07-25T15:02:01.770Z,30.60
2018-07-25T15:04:30.567Z,30.50
2018-07-25T15:06:59.111Z,30.40
2018-07-25T15:09:29.042Z,30.40
2018-07-25T15:12:02.854Z,30.30
2018-07-25T15:14:32.024Z,30.30
2018-07-25T15:17:01.074Z,30.30
2018-07-25T15:19:29.872Z,30.30
2018-07-25T15:21:59.163Z,30.30
2018-07-25T15:24:28.726Z,30.10
2018-07-25T15:26:59.985Z,30.10
2018-07-25T15:29:28.697Z,30.10
2018-07-25T15:31:57.702Z,30.10
2018-07-25T15:34:27.880Z,30.10
2018-07-25T15:36:58.134Z,30.10
2018-07-25T15:39:28.330Z,30.20
2018-07-25T15:41:59.420Z,30.20
2018-07-25T15:44:28.485Z,30.20
2018-07-25T15:46:58.002Z,30.20
2018-07-25T15:49:27.145Z,30.20
2018-07-25T15:51:57.243Z,30.20
2018-07-25T15:54:26.507Z,30.20
2018-07-25T15:56:59.850Z,30.10
2018-07-25T15:59:28.410Z,30.10
2018-07-25T16:01:57.623Z,30.10
2018-07-25T16:04:26.949Z,30.00
2018-07-25T16:06:57.018Z,30.00
2018-07-25T16:09:25.827Z,30.00
2018-07-25T16:11:55.377Z,30.00
2018-07-25T16:14:32.745Z,30.00
2018-07-25T16:17:02.942Z,30.00
2018-07-25T16:19:33.214Z,30.00
2018-07-25T16:22:05.465Z,30.00
2018-07-25T16:24:34.001Z,30.00
2018-07-25T16:27:03.833Z,30.00
2018-07-25T16:29:33.207Z,30.00
2018-07-25T16:32:02.405Z,29.90
2018-07-25T16:34:33.290Z,29.90
2018-07-25T16:37:01.893Z,29.90
2018-07-25T16:39:30.516Z,29.90
2018-07-25T16:41:59.065Z,29.80
2018-07-25T16:44:28.853Z,29.80
2018-07-25T16:46:57.421Z,29.80
2018-07-25T16:49:25.980Z,29.80
2018-07-25T16:51:54.508Z,29.80
2018-07-25T16:54:23.131Z,29.80
2018-07-25T16:56:51.752Z,29.10
2018-07-25T16:59:20.318Z,29.70
2018-07-25T17:01:48.898Z,29.70
2018-07-25T17:04:17.421Z,29.60
2018-07-25T17:06:46.106Z,29.50
2018-07-25T17:09:15.291Z,29.50
2018-07-25T17:11:44.027Z,29.50
2018-07-25T17:14:12.633Z,29.50
2018-07-25T17:16:41.198Z,29.50
2018-07-25T17:19:09.736Z,29.50
2018-07-25T17:21:38.365Z,29.50
2018-07-25T17:24:07.186Z,29.50
2018-07-25T17:26:36.652Z,29.40
2018-07-25T17:29:05.255Z,29.40
2018-07-25T17:31:34.860Z,29.40
2018-07-25T17:34:03.450Z,29.40
2018-07-25T17:36:31.994Z,29.30
2018-07-25T17:39:00.561Z,29.30
2018-07-25T17:41:29.172Z,29.30
2018-07-25T17:43:59.086Z,29.20
2018-07-25T17:46:27.662Z,29.20
2018-07-25T17:48:57.025Z,29.10
2018-07-25T17:51:25.696Z,29.10
2018-07-25T17:53:55.436Z,29.10
2018-07-25T17:56:24.221Z,29.10
2018-07-25T17:58:52.767Z,29.10
2018-07-25T18:01:22.581Z,29.00
2018-07-25T18:03:51.314Z,29.00
2018-07-25T18:06:19.874Z,29.00
2018-07-25T18:08:48.514Z,29.00
2018-07-25T18:11:17.075Z,28.90
2018-07-25T18:13:51.415Z,29.00
2018-07-25T18:16:20.005Z,28.90
2018-07-25T18:18:48.566Z,28.90
2018-07-25T18:21:17.142Z,28.90
2018-07-25T18:26:13.929Z,28.80
2018-07-25T18:28:42.634Z,28.80
2018-07-25T18:31:11.238Z,28.80
2018-07-25T18:33:39.799Z,28.80
2018-07-25T18:36:09.121Z,28.70
2018-07-25T18:38:38.451Z,28.70
2018-07-25T18:41:08.573Z,28.70
2018-07-25T18:43:38.137Z,28.70
2018-07-25T18:46:07.443Z,28.60
2018-07-25T18:48:36.225Z,28.60
2018-07-25T18:51:04.870Z,28.50
2018-07-25T18:53:33.432Z,28.40
2018-07-25T18:56:02.693Z,28.40
2018-07-25T18:58:31.347Z,28.40
2018-07-25T19:01:00.121Z,28.30
2018-07-25T19:03:28.790Z,28.30
2018-07-25T19:05:58.378Z,28.20
2018-07-25T19:08:27.918Z,28.10
2018-07-25T19:10:56.498Z,28.10
2018-07-25T19:13:34.786Z,28.10
2018-07-25T19:16:10.193Z,28.00
2018-07-25T19:18:39.818Z,27.90
2018-07-25T19:21:12.423Z,27.90
2018-07-25T19:23:42.014Z,27.80
2018-07-25T19:26:10.599Z,27.80
2018-07-25T19:28:39.784Z,27.70
2018-07-25T19:31:08.965Z,27.70
2018-07-25T19:33:39.155Z,27.60
2018-07-25T19:36:07.750Z,27.60
2018-07-25T19:38:40.417Z,27.60
2018-07-25T19:41:08.942Z,27.60
2018-07-25T19:43:38.206Z,27.50
2018-07-25T19:46:07.999Z,27.50
2018-07-25T19:48:37.994Z,27.40
2018-07-25T19:51:08.438Z,27.40
2018-07-25T19:53:37.097Z,27.40
2018-07-25T19:56:06.694Z,27.30
2018-07-25T19:58:35.765Z,27.30
2018-07-25T20:01:05.827Z,27.30
2018-07-25T20:03:34.346Z,27.30
2018-07-25T20:06:02.914Z,27.20
2018-07-25T20:08:37.234Z,27.20
2018-07-25T20:11:06.426Z,27.20
2018-07-25T20:13:40.853Z,26.10
2018-07-25T20:16:09.360Z,27.20
2018-07-25T20:18:42.001Z,27.10
2018-07-25T20:21:12.295Z,27.10
2018-07-25T20:23:41.993Z,27.00
2018-07-25T20:26:11.062Z,27.00
2018-07-25T20:28:40.594Z,27.00
2018-07-25T20:31:09.858Z,27.00
2018-07-25T20:33:40.563Z,27.00
2018-07-25T20:36:09.142Z,27.00
2018-07-25T20:38:38.597Z,27.00
2018-07-25T20:41:12.158Z,27.00
2018-07-25T20:43:40.734Z,27.00
2018-07-25T20:46:09.265Z,26.90
2018-07-25T20:48:39.563Z,26.90
2018-07-25T20:51:08.081Z,26.90
2018-07-25T20:53:55.609Z,26.90
2018-07-25T20:56:24.222Z,26.80
2018-07-25T20:58:52.818Z,26.80
2018-07-25T21:01:22.943Z,26.80
2018-07-25T21:04:05.138Z,26.70
2018-07-25T21:06:40.608Z,26.70
2018-07-25T21:09:09.354Z,26.70
2018-07-25T21:11:44.383Z,26.60
2018-07-25T21:14:20.118Z,26.60
2018-07-25T21:17:04.684Z,26.60
2018-07-25T21:19:46.760Z,26.50
2018-07-25T21:25:26.360Z,26.40
2018-07-25T21:28:14.289Z,26.40
2018-07-25T21:31:01.987Z,26.40
2018-07-25T21:33:35.178Z,26.40
2018-07-25T21:36:05.045Z,26.40
2018-07-25T21:38:42.359Z,26.40
2018-07-25T21:41:25.559Z,26.30
2018-07-25T21:44:06.509Z,26.30
2018-07-25T21:46:37.374Z,26.30
2018-07-25T21:49:08.051Z,26.30
2018-07-25T21:51:39.225Z,26.30
2018-07-25T21:54:07.865Z,26.30
2018-07-25T21:56:43.065Z,26.30
2018-07-25T21:59:14.596Z,26.30
2018-07-25T22:01:52.633Z,26.20
2018-07-25T22:04:23.555Z,26.20
2018-07-25T22:06:57.073Z,26.20
2018-07-25T22:09:28.326Z,26.20
2018-07-25T22:12:01.899Z,26.20
2018-07-25T22:14:36.112Z,26.10
2018-07-25T22:17:04.907Z,26.10
2018-07-25T22:19:36.341Z,26.10
2018-07-25T22:22:09.117Z,26.00
2018-07-25T22:24:41.939Z,26.00
2018-07-25T22:27:18.593Z,26.00
2018-07-25T22:29:59.270Z,25.90
2018-07-25T22:32:31.539Z,26.00
2018-07-25T22:35:02.359Z,26.00
2018-07-25T22:37:34.508Z,26.00
2018-07-25T22:40:16.000Z,25.90
2018-07-25T22:42:50.975Z,25.90
2018-07-25T22:45:29.651Z,25.90
2018-07-25T22:48:13.408Z,25.90
2018-07-25T22:50:58.860Z,25.80
2018-07-25T22:53:30.708Z,25.80
2018-07-25T22:56:00.261Z,25.70
2018-07-25T22:58:29.914Z,25.70
2018-07-25T23:01:03.340Z,25.70
2018-07-25T23:03:37.941Z,25.70
2018-07-25T23:06:08.153Z,25.70
2018-07-25T23:08:44.615Z,25.60
2018-07-25T23:11:28.153Z,25.60
2018-07-25T23:14:23.362Z,25.60
2018-07-25T23:17:03.640Z,25.50
2018-07-25T23:19:47.170Z,25.50
2018-07-25T23:22:34.574Z,25.50
2018-07-25T23:25:22.710Z,25.40
2018-07-25T23:28:20.507Z,25.40
2018-07-25T23:31:06.465Z,25.30
2018-07-25T23:33:55.342Z,25.30
2018-07-25T23:36:35.512Z,25.30
2018-07-25T23:42:28.431Z,25.30
2018-07-25T23:45:12.102Z,25.20
2018-07-25T23:48:00.230Z,25.20
2018-07-25T23:51:08.469Z,25.20
2018-07-25T23:53:53.978Z,25.20
2018-07-25T23:56:41.832Z,25.10
2018-07-25T23:59:18.099Z,25.10
